Time;durP1;ratioP1;P1;durP2;ratioP2;P2;SDS_P1;SDS_P2;PMS_P1;PMS_P2;Temp;Humidity;BMP_temperature;BMP_pressure;BME280_temperature;BME280_humidity;BME280_pressure;Samples;Min_cycle;Max_cycle;Signal;HPM_P1;HPM_P2
2022/07/04 00:01:05;;;;;;;4.50;3.70;;;22.30;1.00;;;;;;6315334;28;20232;-55
2022/07/04 00:04:08;;;;;;;4.10;3.90;;;22.30;1.00;;;;;;6326440;28;20351;-56
2022/07/04 00:07:11;;;;;;;4.40;4.10;;;22.30;1.00;;;;;;6327356;28;20349;-55
2022/07/04 00:10:15;;;;;;;3.87;3.60;;;22.10;1.00;;;;;;6330835;28;20280;-56
2022/07/04 00:13:19;;;;;;;4.17;3.87;;;22.10;1.00;;;;;;6326628;28;20319;-55
2022/07/04 00:16:24;;;;;;;3.37;3.03;;;22.10;1.00;;;;;;6311630;28;20237;-56
2022/07/04 00:19:27;;;;;;;3.70;3.40;;;22.00;1.00;;;;;;6309512;28;20611;-55
2022/07/04 00:22:30;;;;;;;2.90;2.90;;;21.90;1.00;;;;;;6307706;28;20241;-55
2022/07/04 00:25:33;;;;;;;4.73;3.27;;;21.80;1.00;;;;;;6309510;28;20327;-55
2022/07/04 00:28:36;;;;;;;6.80;3.63;;;21.70;1.00;;;;;;6308824;28;20247;-57
2022/07/04 00:31:40;;;;;;;3.57;3.33;;;21.60;1.00;;;;;;6335579;28;20378;-54
2022/07/04 00:34:43;;;;;;;4.63;3.27;;;21.60;1.00;;;;;;6310779;28;20228;-52
2022/07/04 00:37:46;;;;;;;3.70;3.50;;;21.50;1.00;;;;;;6317074;28;20266;-56
2022/07/04 00:40:49;;;;;;;3.60;3.50;;;21.50;1.00;;;;;;6335019;28;20810;-54
2022/07/04 00:44:03;;;;;;;3.47;3.17;;;21.40;1.00;;;;;;6334730;28;20244;-56
2022/07/04 00:47:16;;;;;;;3.90;3.60;;;21.40;1.00;;;;;;6334263;28;20251;-55
2022/07/04 00:50:19;;;;;;;3.43;3.43;;;21.30;1.00;;;;;;6335366;28;20238;-55
2022/07/04 00:53:23;;;;;;;3.37;3.23;;;21.30;1.00;;;;;;6310456;28;20311;-55
2022/07/04 00:56:27;;;;;;;3.10;3.00;;;21.20;1.00;;;;;;6309139;28;20279;-55
2022/07/04 00:59:31;;;;;;;3.30;3.20;;;21.10;1.00;;;;;;6308736;28;20370;-55
2022/07/04 01:02:35;;;;;;;3.50;3.40;;;21.10;1.00;;;;;;6323711;28;20235;-54
2022/07/04 01:05:40;;;;;;;3.17;3.07;;;21.10;1.00;;;;;;6333677;28;20330;-56
2022/07/04 01:08:44;;;;;;;3.10;3.00;;;21.00;1.00;;;;;;6327759;28;20514;-56
2022/07/04 01:11:50;;;;;;;3.53;3.43;;;21.00;1.00;;;;;;6325793;28;20315;-56
2022/07/04 01:14:53;;;;;;;3.33;3.03;;;20.90;1.00;;;;;;6334208;28;20308;-54
2022/07/04 01:18:15;;;;;;;3.70;3.40;;;20.90;1.00;;;;;;6332388;28;20331;-55
2022/07/04 01:21:20;;;;;;;3.73;3.63;;;20.80;1.00;;;;;;6333329;28;20745;-54
2022/07/04 01:24:22;;;;;;;3.50;3.40;;;20.70;1.00;;;;;;6330825;28;20767;-55
2022/07/04 01:27:25;;;;;;;3.50;3.40;;;20.70;1.00;;;;;;6318373;28;20299;-54
2022/07/04 01:30:31;;;;;;;4.63;3.33;;;20.60;1.00;;;;;;6309060;28;20492;-55
2022/07/04 01:33:34;;;;;;;3.33;3.23;;;20.60;1.00;;;;;;6319451;28;20792;-55
2022/07/04 01:36:38;;;;;;;3.47;3.40;;;20.50;1.00;;;;;;6324983;28;20362;-55
2022/07/04 01:39:41;;;;;;;2.90;2.80;;;20.50;1.00;;;;;;6330055;28;20328;-55
2022/07/04 01:42:44;;;;;;;3.40;3.30;;;20.50;1.00;;;;;;6334098;28;20345;-56
2022/07/04 01:45:47;;;;;;;3.33;3.10;;;20.40;1.00;;;;;;6314899;28;20323;-55
2022/07/04 01:48:50;;;;;;;4.00;3.80;;;20.30;1.00;;;;;;6314627;28;20689;-56
2022/07/04 01:51:54;;;;;;;3.27;3.20;;;20.30;1.00;;;;;;6331403;28;20238;-54
2022/07/04 01:54:58;;;;;;;3.97;3.70;;;20.20;1.00;;;;;;6321158;28;20324;-54
2022/07/04 01:58:01;;;;;;;4.43;4.13;;;20.20;1.00;;;;;;6307537;28;20409;-55
2022/07/04 02:04:25;;;;;;;3.90;3.80;;;20.00;1.00;;;;;;6325776;28;20729;-55
2022/07/04 02:07:30;;;;;;;4.60;4.40;;;19.90;1.00;;;;;;6329541;28;20613;-55
2022/07/04 02:10:33;;;;;;;4.80;4.53;;;19.80;1.00;;;;;;6322976;28;20323;-55
2022/07/04 02:13:35;;;;;;;4.60;4.30;;;19.70;1.00;;;;;;6333043;28;20323;-55
2022/07/04 02:16:39;;;;;;;5.07;4.67;;;19.60;1.00;;;;;;6331809;28;20281;-55
2022/07/04 02:19:42;;;;;;;4.90;4.80;;;19.60;1.00;;;;;;6332725;28;20231;-55
2022/07/04 02:22:47;;;;;;;5.57;5.27;;;19.50;1.00;;;;;;6329463;28;20416;-55
2022/07/04 02:25:49;;;;;;;7.23;5.37;;;19.40;1.00;;;;;;6320717;28;20724;-55
2022/07/04 02:28:53;;;;;;;6.20;5.80;;;19.30;1.00;;;;;;6309632;28;20752;-56
2022/07/04 02:31:56;;;;;;;7.20;6.60;;;19.20;1.00;;;;;;6333113;28;20315;-55
2022/07/04 02:34:59;;;;;;;6.90;6.60;;;19.20;1.00;;;;;;6324799;28;20700;-55
2022/07/04 02:38:04;;;;;;;7.73;7.33;;;19.20;1.00;;;;;;6322267;28;20313;-55
2022/07/04 02:41:07;;;;;;;7.60;7.03;;;19.10;1.00;;;;;;6331892;28;20269;-56
2022/07/04 02:44:10;;;;;;;7.53;7.13;;;19.10;1.00;;;;;;6315960;28;20296;-55
2022/07/04 02:47:13;;;;;;;7.93;7.50;;;18.90;1.00;;;;;;6306773;28;20826;-55
2022/07/04 02:50:16;;;;;;;8.43;7.80;;;18.90;1.00;;;;;;6308013;28;20229;-56
2022/07/04 02:53:20;;;;;;;8.63;8.03;;;18.80;1.00;;;;;;6305250;28;20236;-55
2022/07/04 02:56:24;;;;;;;8.23;7.83;;;18.80;1.00;;;;;;6306850;28;20319;-55
2022/07/04 02:59:31;;;;;;;8.13;7.73;;;18.70;1.00;;;;;;6306127;28;20309;-54
2022/07/04 03:02:41;;;;;;;8.47;7.97;;;18.70;1.00;;;;;;6309781;28;20257;-58
2022/07/04 03:05:44;;;;;;;8.17;7.63;;;18.70;1.00;;;;;;6330887;28;20335;-54
2022/07/04 03:08:48;;;;;;;8.73;8.03;;;18.60;1.00;;;;;;6324294;28;20233;-55
2022/07/04 03:11:51;;;;;;;8.77;8.33;;;18.60;1.00;;;;;;6315003;28;20232;-55
2022/07/04 03:14:54;;;;;;;9.83;9.10;;;18.60;1.00;;;;;;6332531;28;20707;-55
2022/07/04 03:17:57;;;;;;;9.37;8.47;;;18.60;1.00;;;;;;6326559;28;20347;-54
2022/07/04 03:21:01;;;;;;;10.07;9.27;;;18.60;1.00;;;;;;6306485;28;20453;-56
2022/07/04 03:24:07;;;;;;;9.63;9.03;;;18.60;1.00;;;;;;6303451;28;20315;-54
2022/07/04 03:27:10;;;;;;;9.10;8.57;;;18.50;1.00;;;;;;6305264;28;20378;-54
2022/07/04 03:30:13;;;;;;;9.03;8.43;;;18.50;1.00;;;;;;6306167;28;20236;-56
2022/07/04 03:33:16;;;;;;;9.77;9.07;;;18.50;1.00;;;;;;6305828;28;20339;-53
2022/07/04 03:36:20;;;;;;;9.30;8.60;;;18.50;1.00;;;;;;6318435;28;20345;-50
2022/07/04 03:39:25;;;;;;;9.40;8.57;;;18.50;1.00;;;;;;6316601;28;20240;-53
2022/07/04 03:42:28;;;;;;;8.97;8.47;;;18.50;1.00;;;;;;6332522;28;20716;-54
2022/07/04 03:45:32;;;;;;;9.77;9.13;;;18.50;1.00;;;;;;6329215;28;20255;-54
2022/07/04 03:48:35;;;;;;;9.27;8.57;;;18.50;1.00;;;;;;6329210;28;20367;-55
2022/07/04 03:51:38;;;;;;;10.53;9.73;;;18.50;1.00;;;;;;6329484;28;20856;-54
2022/07/04 03:54:43;;;;;;;9.70;9.00;;;18.50;1.00;;;;;;6329296;28;20311;-54
2022/07/04 03:57:47;;;;;;;11.47;10.27;;;18.50;1.00;;;;;;6330580;28;20601;-54
2022/07/04 04:00:50;;;;;;;9.37;8.53;;;18.50;1.00;;;;;;6323835;28;20625;-54
2022/07/04 04:07:14;;;;;;;10.13;9.20;;;18.50;1.00;;;;;;6314812;27;21076;-54
2022/07/04 04:10:18;;;;;;;10.40;9.40;;;18.60;1.00;;;;;;6325007;28;20240;-56
2022/07/04 04:13:21;;;;;;;9.67;8.90;;;18.60;1.00;;;;;;6301447;28;20256;-55
2022/07/04 04:16:24;;;;;;;9.77;8.87;;;18.60;1.00;;;;;;6325408;27;20735;-58
2022/07/04 04:19:28;;;;;;;9.03;8.20;;;18.70;1.00;;;;;;6336537;27;20379;-56
2022/07/04 04:22:32;;;;;;;9.53;8.90;;;18.80;1.00;;;;;;6340183;27;20323;-55
2022/07/04 04:25:40;;;;;;;9.27;8.53;;;18.90;1.00;;;;;;6333159;27;20242;-54
2022/07/04 04:28:44;;;;;;;10.70;9.90;;;18.90;1.00;;;;;;6327135;28;20255;-56
2022/07/04 04:31:46;;;;;;;9.07;8.60;;;18.90;1.00;;;;;;6331406;27;20521;-55
2022/07/04 04:34:49;;;;;;;9.90;9.20;;;18.90;1.00;;;;;;6315058;27;25897;-55
2022/07/04 04:37:52;;;;;;;9.37;8.87;;;18.90;1.00;;;;;;6315188;28;20275;-55
2022/07/04 04:40:56;;;;;;;9.70;8.90;;;18.90;1.00;;;;;;6325960;28;20227;-55
2022/07/04 04:43:59;;;;;;;9.97;9.30;;;18.90;1.00;;;;;;6323194;28;20599;-55
2022/07/04 04:47:02;;;;;;;9.27;8.73;;;18.90;1.00;;;;;;6325778;27;20350;-55
2022/07/04 04:50:10;;;;;;;10.40;9.57;;;19.00;1.00;;;;;;6334234;27;20255;-54
2022/07/04 04:53:13;;;;;;;9.43;8.87;;;19.00;1.00;;;;;;6329969;27;20297;-55
2022/07/04 04:56:17;;;;;;;9.73;9.07;;;19.10;1.00;;;;;;6315038;28;20223;-54
2022/07/04 04:59:20;;;;;;;9.60;9.10;;;19.20;1.00;;;;;;6330116;28;20232;-55
2022/07/04 05:02:23;;;;;;;9.00;8.43;;;19.20;1.00;;;;;;6329751;28;20220;-54
2022/07/04 05:05:26;;;;;;;8.97;8.47;;;19.40;1.00;;;;;;6332285;28;20227;-55
2022/07/04 05:08:29;;;;;;;9.20;8.70;;;19.60;1.00;;;;;;6327119;28;20296;-56
2022/07/04 05:11:35;;;;;;;10.17;8.03;;;19.80;1.00;;;;;;6332459;27;20891;-54
2022/07/04 05:14:38;;;;;;;8.23;7.53;;;19.90;1.00;;;;;;6333814;27;20257;-54
2022/07/04 05:17:47;;;;;;;7.97;7.33;;;20.20;1.00;;;;;;6326116;28;20425;-54
2022/07/04 05:20:50;;;;;;;8.20;7.47;;;20.40;1.00;;;;;;6323872;27;20245;-56
2022/07/04 05:23:53;;;;;;;7.13;6.67;;;20.50;1.00;;;;;;6334993;27;20677;-56
2022/07/04 05:26:57;;;;;;;6.97;6.67;;;20.50;1.00;;;;;;6324798;28;20705;-57
2022/07/04 05:30:02;;;;;;;6.87;6.10;;;20.40;1.00;;;;;;6316955;28;20264;-55
2022/07/04 05:33:04;;;;;;;6.67;6.27;;;20.40;1.00;;;;;;6319536;27;20300;-54
2022/07/04 05:36:08;;;;;;;6.93;6.33;;;20.40;1.00;;;;;;6308275;28;20240;-56
2022/07/04 05:39:10;;;;;;;6.53;6.20;;;20.30;1.00;;;;;;6312626;28;20765;-55
2022/07/04 05:42:15;;;;;;;6.20;5.77;;;20.20;1.00;;;;;;6329705;27;20327;-54
2022/07/04 05:45:18;;;;;;;6.03;5.67;;;20.10;1.00;;;;;;6330656;27;20323;-54
2022/07/04 05:48:21;;;;;;;5.80;5.50;;;19.90;1.00;;;;;;6316965;27;20240;-56
2022/07/04 05:51:23;;;;;;;5.43;5.23;;;19.80;1.00;;;;;;6326026;27;20647;-53
2022/07/04 05:54:26;;;;;;;5.20;4.90;;;19.80;1.00;;;;;;6336785;27;20758;-53
2022/07/04 05:57:31;;;;;;;4.87;4.67;;;20.10;1.00;;;;;;6321714;28;20309;-54
2022/07/04 06:00:34;;;;;;;4.57;4.27;;;20.30;1.00;;;;;;6327612;28;20236;-56
2022/07/04 06:03:37;;;;;;;4.77;4.57;;;20.60;1.00;;;;;;6331361;27;20306;-55
2022/07/04 06:06:40;;;;;;;4.10;4.00;;;20.80;1.00;;;;;;6322124;28;20245;-56
2022/07/04 06:09:43;;;;;;;4.00;3.90;;;20.90;1.00;;;;;;6319224;28;20458;-56
2022/07/04 06:12:51;;;;;;;4.37;4.07;;;21.20;1.00;;;;;;6332925;27;20235;-55
2022/07/04 06:15:53;;;;;;;4.07;3.73;;;21.40;1.00;;;;;;6338082;27;20311;-55
2022/07/04 06:18:56;;;;;;;3.77;3.67;;;21.80;1.00;;;;;;6329672;27;20323;-54
2022/07/04 06:21:59;;;;;;;3.63;3.43;;;22.10;1.00;;;;;;6323262;27;20232;-54
2022/07/04 06:25:02;;;;;;;4.30;3.10;;;22.10;1.00;;;;;;6312510;28;20393;-54
2022/07/04 06:28:06;;;;;;;3.40;3.30;;;22.40;1.00;;;;;;6339206;27;20320;-54
2022/07/04 06:31:28;;;;;;;3.23;3.13;;;22.40;1.00;;;;;;6327485;28;20227;-56
2022/07/04 06:37:51;;;;;;;2.50;2.50;;;23.00;1.00;;;;;;6312193;28;20610;-55
2022/07/04 06:40:55;;;;;;;2.27;2.27;;;23.10;1.00;;;;;;6321330;28;20244;-54
2022/07/04 06:44:01;;;;;;;2.43;2.33;;;23.30;1.00;;;;;;6328896;28;20518;-55
2022/07/04 06:47:04;;;;;;;2.27;2.27;;;23.50;1.00;;;;;;6328207;28;20307;-53
2022/07/04 06:50:08;;;;;;;2.10;2.10;;;23.50;1.00;;;;;;6324986;28;20304;-54
2022/07/04 06:53:31;;;;;;;2.43;2.33;;;23.90;1.00;;;;;;6313258;28;20240;-54
2022/07/04 06:56:34;;;;;;;2.20;2.10;;;24.10;1.00;;;;;;6336300;27;20236;-53
2022/07/04 06:59:39;;;;;;;1.97;1.90;;;24.30;1.00;;;;;;6327154;28;20243;-56
2022/07/04 07:02:43;;;;;;;2.00;2.00;;;24.40;1.00;;;;;;6321063;28;20990;-55
2022/07/04 07:05:46;;;;;;;4.30;2.00;;;24.40;1.00;;;;;;6333276;28;20288;-54
2022/07/04 07:09:02;;;;;;;2.13;2.03;;;24.50;1.00;;;;;;6313040;28;20605;-54
2022/07/04 07:12:05;;;;;;;3.17;1.77;;;24.50;1.00;;;;;;6331128;28;20382;-55
2022/07/04 07:15:11;;;;;;;3.50;2.07;;;24.30;1.00;;;;;;6330966;28;20320;-55
2022/07/04 07:18:14;;;;;;;2.20;2.10;;;24.10;1.00;;;;;;6322584;28;20278;-55
2022/07/04 07:21:20;;;;;;;1.80;1.80;;;24.20;1.00;;;;;;6318943;28;20331;-54
2022/07/04 07:24:24;;;;;;;4.50;2.10;;;24.30;1.00;;;;;;6340623;27;20255;-55
2022/07/04 07:27:28;;;;;;;2.87;2.00;;;24.30;1.00;;;;;;6334959;27;20308;-53
2022/07/04 07:30:32;;;;;;;1.93;1.83;;;24.10;1.00;;;;;;6324355;27;20227;-55
2022/07/04 07:33:35;;;;;;;1.93;1.70;;;23.80;1.00;;;;;;6322589;27;20248;-54
2022/07/04 07:36:38;;;;;;;2.20;2.10;;;23.90;1.00;;;;;;6328557;28;20315;-55
2022/07/04 07:39:41;;;;;;;2.37;2.20;;;24.00;1.00;;;;;;6320197;28;20247;-54
2022/07/04 07:42:45;;;;;;;2.20;1.90;;;24.30;1.00;;;;;;6337389;27;20464;-55
2022/07/04 07:45:49;;;;;;;2.40;2.23;;;24.40;1.00;;;;;;6321853;27;20479;-55
2022/07/04 07:48:52;;;;;;;2.30;2.20;;;24.00;1.00;;;;;;6327345;27;20819;-56
2022/07/04 07:51:59;;;;;;;2.00;1.90;;;23.90;1.00;;;;;;6341036;27;20384;-56
2022/07/04 07:55:01;;;;;;;3.10;1.83;;;23.50;1.00;;;;;;6331794;27;20291;-55
2022/07/04 07:58:04;;;;;;;2.17;2.07;;;23.30;1.00;;;;;;6341319;27;20718;-56
2022/07/04 08:01:09;;;;;;;2.13;1.93;;;23.20;1.00;;;;;;6321788;28;20240;-54
2022/07/04 08:07:36;;;;;;;1.53;1.53;;;23.00;1.00;;;;;;6327264;27;20235;-55
2022/07/04 08:10:38;;;;;;;3.60;1.87;;;23.10;1.00;;;;;;6333939;27;20305;-55
2022/07/04 08:13:41;;;;;;;1.70;1.60;;;23.20;1.00;;;;;;6337861;27;20239;-54
2022/07/04 08:16:51;;;;;;;1.73;1.63;;;23.20;1.00;;;;;;6333167;28;20640;-55
2022/07/04 08:19:58;;;;;;;2.40;1.90;;;22.90;1.00;;;;;;6331269;27;20247;-55
2022/07/04 08:23:01;;;;;;;3.50;1.70;;;22.90;1.00;;;;;;6315710;28;20322;-56
2022/07/04 08:26:04;;;;;;;3.10;2.67;;;22.80;1.00;;;;;;6319236;27;20344;-55
2022/07/04 08:29:20;;;;;;;1.63;1.53;;;22.70;1.00;;;;;;6316734;28;20290;-54
2022/07/04 08:32:24;;;;;;;1.97;1.93;;;22.50;1.00;;;;;;6316428;28;20265;-54
2022/07/04 08:35:28;;;;;;;1.80;1.80;;;22.50;1.00;;;;;;6327980;27;20229;-55
2022/07/04 08:38:31;;;;;;;1.60;1.50;;;22.60;1.00;;;;;;6323314;27;20240;-54
2022/07/04 08:41:38;;;;;;;1.67;1.60;;;22.70;1.00;;;;;;6328872;28;20250;-55
2022/07/04 08:44:46;;;;;;;5.97;2.20;;;22.80;1.00;;;;;;6322578;28;20232;-54
2022/07/04 08:47:53;;;;;;;1.50;1.50;;;23.00;1.00;;;;;;6321369;28;20663;-54
2022/07/04 08:50:58;;;;;;;1.33;1.33;;;23.00;1.00;;;;;;6322913;28;20317;-54
2022/07/04 08:58:25;;;;;;;1.83;1.70;;;23.20;1.00;;;;;;6319379;27;20246;-54
2022/07/04 09:01:14;;;;;;;1.93;1.83;;;23.60;1.00;;;;;;6299684;27;20247;-56
2022/07/04 09:04:20;;;;;;;2.10;1.90;;;23.70;1.00;;;;;;6334115;27;20522;-54
2022/07/04 09:07:24;;;;;;;3.50;2.37;;;23.50;1.00;;;;;;6331810;27;20755;-54
2022/07/04 09:10:27;;;;;;;2.10;2.00;;;23.60;1.00;;;;;;6312581;28;20985;-54
2022/07/04 09:13:31;;;;;;;1.97;1.87;;;23.60;1.00;;;;;;6319962;28;20236;-53
2022/07/04 09:16:37;;;;;;;2.37;2.27;;;23.70;1.00;;;;;;6337576;27;20232;-55
2022/07/04 09:19:43;;;;;;;3.03;2.30;;;23.80;1.00;;;;;;6331390;27;20228;-55
2022/07/04 09:22:47;;;;;;;2.40;2.30;;;24.00;1.00;;;;;;6319394;27;20236;-54
2022/07/04 09:26:08;;;;;;;4.87;3.00;;;24.10;1.00;;;;;;6327529;27;20455;-55
2022/07/04 09:29:10;;;;;;;3.13;1.77;;;24.00;1.00;;;;;;6333424;27;20583;-54
2022/07/04 09:32:33;;;;;;;3.27;2.13;;;24.00;1.00;;;;;;6331307;27;20240;-55
2022/07/04 09:35:37;;;;;;;2.30;2.20;;;23.90;1.00;;;;;;6315330;28;20279;-55
2022/07/04 09:38:41;;;;;;;1.90;1.80;;;24.10;1.00;;;;;;6316370;28;20278;-55
2022/07/04 09:41:58;;;;;;;3.17;1.77;;;24.10;1.00;;;;;;6331708;28;20571;-55
2022/07/04 09:45:06;;;;;;;1.93;1.83;;;23.90;1.00;;;;;;6319231;28;20231;-53
2022/07/04 09:48:12;;;;;;;2.53;1.90;;;23.80;1.00;;;;;;6306708;28;20830;-54
2022/07/04 09:51:35;;;;;;;1.80;1.70;;;24.00;1.00;;;;;;6329555;28;20265;-54
2022/07/04 09:54:38;;;;;;;1.90;1.80;;;23.90;1.00;;;;;;6329460;28;20280;-55
2022/07/04 09:57:46;;;;;;;2.17;2.07;;;24.10;1.00;;;;;;6327557;28;20239;-55
2022/07/04 10:00:51;;;;;;;4.13;2.03;;;24.40;1.00;;;;;;6332266;28;20246;-55
2022/07/04 10:03:54;;;;;;;2.27;2.13;;;24.50;1.00;;;;;;6329742;28;20236;-55
2022/07/04 10:06:58;;;;;;;2.10;2.00;;;24.60;1.00;;;;;;6329767;28;20263;-55
2022/07/04 10:10:25;;;;;;;3.13;2.20;;;24.60;1.00;;;;;;6329997;28;20389;-56
2022/07/04 10:13:32;;;;;;;2.27;2.17;;;24.50;1.00;;;;;;6328913;28;20228;-54
2022/07/04 10:16:35;;;;;;;2.87;2.13;;;24.30;1.00;;;;;;6331961;28;20304;-55
2022/07/04 10:19:38;;;;;;;1.97;1.77;;;24.00;1.00;;;;;;6330972;28;20247;-55
2022/07/04 10:22:42;;;;;;;2.03;1.93;;;23.80;1.00;;;;;;6326594;28;20292;-55
2022/07/04 10:25:47;;;;;;;1.90;1.90;;;24.00;1.00;;;;;;6331187;28;20285;-55
2022/07/04 10:28:52;;;;;;;2.00;2.00;;;24.00;1.00;;;;;;6328250;28;20273;-54
2022/07/04 10:31:55;;;;;;;2.50;2.30;;;24.20;1.00;;;;;;6330228;28;20234;-54
2022/07/04 10:35:01;;;;;;;2.17;2.00;;;24.50;1.00;;;;;;6328158;28;20235;-54
2022/07/04 10:38:07;;;;;;;2.27;2.17;;;24.70;1.00;;;;;;6318332;28;20667;-55
2022/07/04 10:41:10;;;;;;;2.27;2.10;;;24.90;1.00;;;;;;6326869;28;20463;-54
2022/07/04 10:44:25;;;;;;;2.33;2.10;;;24.80;1.00;;;;;;6332614;28;20456;-55
2022/07/04 10:47:29;;;;;;;2.30;2.20;;;24.70;1.00;;;;;;6330787;28;20735;-56
2022/07/04 10:50:33;;;;;;;2.43;2.10;;;24.90;1.00;;;;;;6329474;28;20308;-54
2022/07/04 10:53:59;;;;;;;1.83;1.73;;;24.80;1.00;;;;;;6326860;28;20326;-54
2022/07/04 10:57:23;;;;;;;2.10;2.00;;;24.50;1.00;;;;;;6330315;28;20555;-54
2022/07/04 11:00:26;;;;;;;4.97;2.17;;;24.30;1.00;;;;;;6322141;28;20311;-54
2022/07/04 11:03:30;;;;;;;2.20;2.10;;;24.40;1.00;;;;;;6331111;28;20239;-54
2022/07/04 11:06:56;;;;;;;1.67;1.67;;;24.20;1.00;;;;;;6323879;28;20256;-53
2022/07/04 11:10:25;;;;;;;2.00;2.00;;;23.90;1.00;;;;;;6321839;28;20315;-55
2022/07/04 11:13:39;;;;;;;3.37;3.00;;;24.20;1.00;;;;;;6314421;28;20251;-54
2022/07/04 11:16:53;;;;;;;2.60;1.70;;;24.40;1.00;;;;;;6328923;28;20764;-54
2022/07/04 11:20:00;;;;;;;2.30;2.20;;;24.60;1.00;;;;;;6323363;28;20683;-54
2022/07/04 11:23:05;;;;;;;2.10;2.00;;;24.90;1.00;;;;;;6324260;28;20327;-54
2022/07/04 11:26:10;;;;;;;2.13;1.90;;;25.10;1.00;;;;;;6332050;28;20308;-54
2022/07/04 11:29:14;;;;;;;2.10;2.10;;;25.10;1.00;;;;;;6331294;28;20235;-54
2022/07/04 11:32:16;;;;;;;1.83;1.83;;;24.90;1.00;;;;;;6328617;28;20227;-56
2022/07/04 11:35:22;;;;;;;2.37;2.17;;;24.80;1.00;;;;;;6330192;28;20845;-55
2022/07/04 11:38:24;;;;;;;1.93;1.83;;;25.10;1.00;;;;;;6307295;28;20251;-53
2022/07/04 11:45:04;;;;;;;2.27;2.10;;;25.30;1.00;;;;;;6330982;28;20243;-54
2022/07/04 11:48:08;;;;;;;2.00;1.90;;;25.20;1.00;;;;;;6329434;28;20235;-55
2022/07/04 11:51:18;;;;;;;1.90;1.80;;;25.10;1.00;;;;;;6321816;28;20224;-54
2022/07/04 11:54:22;;;;;;;2.03;1.90;;;25.10;1.00;;;;;;6327923;28;20803;-55
2022/07/04 11:57:40;;;;;;;1.87;1.80;;;25.20;1.00;;;;;;6319775;28;20237;-50
2022/07/04 12:00:43;;;;;;;1.90;1.80;;;25.50;1.00;;;;;;6329240;28;20242;-54
2022/07/04 12:03:48;;;;;;;2.53;2.43;;;25.90;1.00;;;;;;6330359;28;20727;-55
2022/07/04 12:06:51;;;;;;;1.80;1.80;;;26.10;1.00;;;;;;6329313;28;20550;-54
2022/07/04 12:09:56;;;;;;;7.93;2.10;;;25.90;1.00;;;;;;6332654;28;20842;-54
2022/07/04 12:13:05;;;;;;;2.83;2.50;;;25.80;1.00;;;;;;6333466;27;20368;-54
2022/07/04 12:16:12;;;;;;;1.80;1.80;;;25.60;1.00;;;;;;6334429;28;20347;-54
2022/07/04 12:19:15;;;;;;;2.13;2.03;;;25.50;1.00;;;;;;6333142;28;20736;-55
2022/07/04 12:22:33;;;;;;;2.10;2.00;;;25.40;1.00;;;;;;6331872;28;20344;-54
2022/07/04 12:25:39;;;;;;;2.07;1.97;;;25.50;1.00;;;;;;6328868;27;20834;-55
2022/07/04 12:28:43;;;;;;;2.00;1.90;;;25.80;1.00;;;;;;6332773;28;20934;-54
2022/07/04 12:31:47;;;;;;;2.63;2.23;;;25.80;1.00;;;;;;6334689;28;20822;-54
2022/07/04 12:34:50;;;;;;;2.93;2.10;;;25.60;1.00;;;;;;6331215;28;20642;-54
2022/07/04 12:38:02;;;;;;;4.50;2.10;;;25.50;1.00;;;;;;6323931;27;20327;-55
2022/07/04 12:41:07;;;;;;;2.10;2.00;;;25.50;1.00;;;;;;6328676;28;20319;-54
2022/07/04 12:44:20;;;;;;;2.33;2.23;;;25.10;1.00;;;;;;6326095;28;20232;-53
2022/07/04 12:47:23;;;;;;;2.10;2.00;;;25.10;1.00;;;;;;6333411;28;20243;-53
2022/07/04 12:50:44;;;;;;;1.73;1.73;;;25.10;1.00;;;;;;6306467;28;20236;-54
2022/07/04 12:53:51;;;;;;;2.30;2.10;;;25.10;1.00;;;;;;6330254;28;20252;-53
2022/07/04 12:57:09;;;;;;;2.40;2.30;;;25.10;1.00;;;;;;6333228;28;20308;-54
2022/07/04 13:00:14;;;;;;;2.10;1.80;;;25.10;1.00;;;;;;6331129;28;20247;-54
2022/07/04 13:03:37;;;;;;;4.13;2.00;;;25.10;1.00;;;;;;6331033;28;20709;-54
2022/07/04 13:06:40;;;;;;;3.03;1.80;;;25.40;1.00;;;;;;6331430;28;20367;-54
2022/07/04 13:09:45;;;;;;;2.20;2.10;;;25.50;1.00;;;;;;6328292;28;20667;-53
2022/07/04 13:12:49;;;;;;;2.73;2.00;;;25.60;1.00;;;;;;6333071;28;20228;-54
2022/07/04 13:15:53;;;;;;;1.97;1.87;;;25.80;1.00;;;;;;6333064;28;20256;-54
2022/07/04 13:18:56;;;;;;;1.57;1.53;;;25.70;1.00;;;;;;6322940;28;20783;-55
2022/07/04 13:21:59;;;;;;;1.93;1.90;;;25.70;1.00;;;;;;6323130;28;20397;-55
2022/07/04 13:25:03;;;;;;;2.03;1.97;;;25.80;1.00;;;;;;6328998;28;20235;-54
2022/07/04 13:28:06;;;;;;;2.00;1.67;;;25.70;1.00;;;;;;6332430;28;20243;-55
2022/07/04 13:31:11;;;;;;;2.20;2.10;;;25.70;1.00;;;;;;6329693;27;20775;-57
2022/07/04 13:34:14;;;;;;;2.73;1.57;;;25.50;1.00;;;;;;6326602;28;20769;-49
2022/07/04 13:37:17;;;;;;;1.93;1.83;;;25.40;1.00;;;;;;6322932;28;20390;-52
2022/07/04 13:40:20;;;;;;;1.90;1.80;;;25.40;1.00;;;;;;6330040;28;20320;-54
2022/07/04 13:43:24;;;;;;;1.50;1.50;;;25.30;1.00;;;;;;6330029;28;20709;-53
2022/07/04 13:46:29;;;;;;;1.60;1.60;;;25.30;1.00;;;;;;6333769;27;20316;-54
2022/07/04 13:49:41;;;;;;;4.27;2.10;;;25.40;1.00;;;;;;6331078;28;20596;-53
2022/07/04 13:52:45;;;;;;;1.47;1.47;;;25.60;1.00;;;;;;6325698;28;20232;-54
2022/07/04 13:55:49;;;;;;;1.50;1.50;;;25.80;1.00;;;;;;6332025;28;20770;-53
2022/07/04 13:58:52;;;;;;;2.03;2.03;;;25.80;1.00;;;;;;6331565;28;20717;-54
2022/07/04 14:01:56;;;;;;;1.70;1.70;;;25.80;1.00;;;;;;6327863;28;20236;-55
2022/07/04 14:05:00;;;;;;;2.10;2.10;;;25.70;1.00;;;;;;6332788;28;20231;-55
2022/07/04 14:08:03;;;;;;;2.20;1.80;;;25.80;1.00;;;;;;6321288;28;20244;-54
2022/07/04 14:11:06;;;;;;;1.50;1.50;;;25.90;1.00;;;;;;6324938;28;20865;-55
2022/07/04 14:14:08;;;;;;;3.73;1.87;;;25.90;1.00;;;;;;6331686;28;20732;-55
2022/07/04 14:17:13;;;;;;;1.77;1.67;;;25.90;1.00;;;;;;6331084;28;20412;-54
2022/07/04 14:20:36;;;;;;;1.40;1.40;;;25.90;1.00;;;;;;6331467;28;20242;-54
2022/07/04 14:23:44;;;;;;;1.80;1.70;;;25.60;1.00;;;;;;6327490;28;20618;-54
2022/07/04 14:26:47;;;;;;;1.90;1.80;;;25.60;1.00;;;;;;6325417;28;20235;-54
2022/07/04 14:29:50;;;;;;;2.03;1.70;;;25.50;1.00;;;;;;6331280;28;20236;-55
2022/07/04 14:32:57;;;;;;;1.70;1.60;;;25.50;1.00;;;;;;6330916;28;20227;-53
2022/07/04 14:36:02;;;;;;;2.03;1.93;;;25.50;1.00;;;;;;6330837;27;20415;-53
2022/07/04 14:39:05;;;;;;;1.57;1.57;;;25.70;1.00;;;;;;6322203;28;20745;-53
2022/07/04 14:42:08;;;;;;;1.60;1.60;;;25.90;1.00;;;;;;6325091;27;20557;-54
2022/07/04 14:45:11;;;;;;;1.93;1.83;;;26.30;1.00;;;;;;6331045;28;20311;-53
2022/07/04 14:48:15;;;;;;;1.67;1.67;;;26.40;1.00;;;;;;6330063;28;20352;-54
2022/07/04 14:51:19;;;;;;;1.70;1.70;;;26.30;1.00;;;;;;6319879;27;20235;-54
2022/07/04 14:54:22;;;;;;;1.77;1.70;;;26.00;1.00;;;;;;6328038;28;20574;-55
2022/07/04 14:57:25;;;;;;;2.20;1.97;;;26.00;1.00;;;;;;6330392;28;20842;-54
2022/07/04 15:00:28;;;;;;;1.83;1.77;;;25.90;1.00;;;;;;6331747;28;20404;-53
2022/07/04 15:03:33;;;;;;;2.10;2.10;;;25.90;1.00;;;;;;6329631;28;20232;-54
2022/07/04 15:06:35;;;;;;;2.00;1.90;;;26.00;1.00;;;;;;6330555;28;20346;-59
2022/07/04 15:09:38;;;;;;;1.70;1.70;;;26.10;1.00;;;;;;6329061;28;20318;-55
2022/07/04 15:12:41;;;;;;;2.73;1.73;;;26.00;1.00;;;;;;6331935;28;20249;-54
2022/07/04 15:15:44;;;;;;;1.90;1.80;;;26.00;1.00;;;;;;6331091;28;20236;-57
2022/07/04 15:19:07;;;;;;;1.80;1.80;;;26.20;1.00;;;;;;6329732;28;20611;-54
2022/07/04 15:25:45;;;;;;;1.70;1.70;;;26.30;1.00;;;;;;6225358;28;20683;-59
2022/07/04 15:28:51;;;;;;;1.70;1.70;;;26.30;1.00;;;;;;6226049;28;20381;-54
2022/07/04 15:31:54;;;;;;;1.87;1.83;;;26.20;1.00;;;;;;6315255;28;20230;-53
2022/07/04 15:34:58;;;;;;;1.97;1.87;;;25.90;1.00;;;;;;6314826;28;20327;-53
2022/07/04 15:38:23;;;;;;;2.33;2.13;;;25.80;1.00;;;;;;6324081;28;20300;-53
2022/07/04 15:41:26;;;;;;;10.17;1.53;;;25.80;1.00;;;;;;6326262;28;20281;-54
2022/07/04 15:44:28;;;;;;;1.80;1.70;;;25.90;1.00;;;;;;6333445;28;20258;-54
2022/07/04 15:47:33;;;;;;;1.67;1.67;;;25.90;1.00;;;;;;6330123;28;20349;-55
2022/07/04 15:50:37;;;;;;;1.50;1.40;;;25.70;1.00;;;;;;6335776;28;20231;-53
2022/07/04 15:53:40;;;;;;;2.13;2.00;;;25.50;1.00;;;;;;6333589;28;20708;-53
2022/07/04 15:56:43;;;;;;;2.50;1.60;;;25.50;1.00;;;;;;6328036;28;20231;-55
2022/07/04 15:59:46;;;;;;;1.67;1.67;;;25.40;1.00;;;;;;6335517;28;20240;-54
2022/07/04 16:02:50;;;;;;;1.90;1.90;;;25.30;1.00;;;;;;6335394;28;20240;-54
2022/07/04 16:05:54;;;;;;;1.80;1.70;;;25.30;1.00;;;;;;6334675;27;20266;-54
2022/07/04 16:08:57;;;;;;;1.80;1.80;;;25.20;1.00;;;;;;6332967;28;20377;-54
2022/07/04 16:12:00;;;;;;;2.03;1.93;;;25.10;1.00;;;;;;6332684;27;20617;-55
2022/07/04 16:15:04;;;;;;;1.67;1.57;;;25.10;1.00;;;;;;6335799;28;20257;-55
2022/07/04 16:18:07;;;;;;;1.90;1.80;;;25.20;1.00;;;;;;6331945;28;20259;-56
2022/07/04 16:21:11;;;;;;;1.83;1.73;;;25.50;1.00;;;;;;6330019;28;20336;-54
2022/07/04 16:24:15;;;;;;;2.10;2.00;;;25.60;1.00;;;;;;6329389;28;20247;-54
2022/07/04 16:27:17;;;;;;;1.80;1.80;;;25.70;1.00;;;;;;6333117;27;20236;-54
2022/07/04 16:30:25;;;;;;;1.80;1.80;;;25.80;1.00;;;;;;6328632;28;20228;-55
2022/07/04 16:33:29;;;;;;;2.37;1.90;;;25.70;1.00;;;;;;6331474;27;20286;-54
2022/07/04 16:36:33;;;;;;;1.77;1.67;;;25.70;1.00;;;;;;6329437;27;20633;-54
2022/07/04 16:39:36;;;;;;;1.93;1.83;;;25.60;1.00;;;;;;6326323;28;20341;-54
2022/07/04 16:42:40;;;;;;;1.77;1.67;;;25.60;1.00;;;;;;6327591;28;20510;-55